JST522 YSSY-YBBN
Flight info
| Callsign | JST522 |
|---|---|
| Flight time | 1h 9m |
| Altitude | 37000 |
| Route | TESAT H252 OLSEM Y193 BANDA H252 BN |
| Aircraft | A320/M-SDE3FGHIRWY/LB1 |
Departure
| Time | 2026-05-08 01:12 |
|---|---|
| Airport | Sydney Kingsford Smith International Airport (YSSY) |
Arrival
| Time | 2026-05-08 02:21 |
|---|---|
| Airport | Brisbane International Airport (YBBN) |
| Time | Latitude | Longitude | Altitude | Speed | Heading |
|---|---|---|---|---|---|
| 2026-05-08 00:34 | -33.93562 | 151.17756 | 30 ft | 0 kts | 281° |
| 2026-05-08 00:36 | -33.93524 | 151.17765 | 30 ft | 0 kts | 279° |
| 2026-05-08 00:59 | -33.93524 | 151.17766 | 30 ft | 1 kts | 279° |
| 2026-05-08 00:59 | -33.93528 | 151.17794 | 30 ft | 4 kts | 279° |
| 2026-05-08 00:59 | -33.93530 | 151.17825 | 30 ft | 4 kts | 252° |
| 2026-05-08 01:00 | -33.93523 | 151.17839 | 30 ft | 1 kts | 190° |
| 2026-05-08 01:00 | -33.93547 | 151.17834 | 30 ft | 4 kts | 190° |
| 2026-05-08 01:00 | -33.93574 | 151.17828 | 30 ft | 4 kts | 190° |
| 2026-05-08 01:00 | -33.93575 | 151.17828 | 30 ft | 0 kts | 190° |
| 2026-05-08 01:05 | -33.93577 | 151.17828 | 30 ft | 1 kts | 190° |
| 2026-05-08 01:05 | -33.93587 | 151.17826 | 30 ft | 3 kts | 190° |
| 2026-05-08 01:05 | -33.93616 | 151.17819 | 30 ft | 6 kts | 190° |
| 2026-05-08 01:05 | -33.93683 | 151.17804 | 30 ft | 9 kts | 192° |
| 2026-05-08 01:06 | -33.93748 | 151.17785 | 30 ft | 5 kts | 188° |
| 2026-05-08 01:06 | -33.93774 | 151.17816 | 30 ft | 7 kts | 118° |
| 2026-05-08 01:06 | -33.93801 | 151.17878 | 30 ft | 10 kts | 117° |
| 2026-05-08 01:06 | -33.93796 | 151.17965 | 30 ft | 12 kts | 70° |
| 2026-05-08 01:07 | -33.93777 | 151.18036 | 30 ft | 14 kts | 75° |
| 2026-05-08 01:07 | -33.93750 | 151.18161 | 30 ft | 17 kts | 75° |
| 2026-05-08 01:07 | -33.93717 | 151.18302 | 30 ft | 19 kts | 72° |
| 2026-05-08 01:07 | -33.93677 | 151.18462 | 30 ft | 20 kts | 74° |
| 2026-05-08 01:08 | -33.93637 | 151.18630 | 30 ft | 18 kts | 73° |
| 2026-05-08 01:08 | -33.93609 | 151.18746 | 30 ft | 13 kts | 73° |
| 2026-05-08 01:08 | -33.93591 | 151.18855 | 30 ft | 14 kts | 92° |
| 2026-05-08 01:08 | -33.93640 | 151.18939 | 28 ft | 11 kts | 156° |
| 2026-05-08 01:09 | -33.93658 | 151.18946 | 28 ft | 0 kts | 163° |
| 2026-05-08 01:10 | -33.93659 | 151.18946 | 28 ft | 1 kts | 163° |
| 2026-05-08 01:10 | -33.93692 | 151.18958 | 28 ft | 10 kts | 163° |
| 2026-05-08 01:10 | -33.93763 | 151.18957 | 26 ft | 11 kts | 239° |
| 2026-05-08 01:11 | -33.93767 | 151.18938 | 27 ft | 0 kts | 253° |
| 2026-05-08 01:11 | -33.93821 | 151.18706 | 26 ft | 65 kts | 255° |
| 2026-05-08 01:11 | -33.93990 | 151.17948 | 29 ft | 121 kts | 254° |
| 2026-05-08 01:11 | -33.94265 | 151.16830 | 293 ft | 143 kts | 256° |
| 2026-05-08 01:12 | -33.94510 | 151.15699 | 1084 ft | 138 kts | 256° |
| 2026-05-08 01:12 | -33.94754 | 151.14584 | 1789 ft | 138 kts | 256° |
| 2026-05-08 01:12 | -33.94848 | 151.13372 | 2110 ft | 160 kts | 280° |
| 2026-05-08 01:12 | -33.94235 | 151.12105 | 2403 ft | 191 kts | 301° |
| 2026-05-08 01:13 | -33.93141 | 151.10994 | 2782 ft | 220 kts | 321° |
| 2026-05-08 01:13 | -33.91617 | 151.10320 | 3183 ft | 254 kts | 350° |
| 2026-05-08 01:13 | -33.89795 | 151.10756 | 3618 ft | 285 kts | 29° |
| 2026-05-08 01:13 | -33.88326 | 151.12391 | 4413 ft | 292 kts | 55° |
| 2026-05-08 01:14 | -33.87197 | 151.14428 | 5403 ft | 292 kts | 63° |
| 2026-05-08 01:14 | -33.86213 | 151.16575 | 6396 ft | 294 kts | 65° |
| 2026-05-08 01:14 | -33.85273 | 151.18739 | 7289 ft | 298 kts | 65° |
| 2026-05-08 01:14 | -33.84290 | 151.20963 | 8143 ft | 304 kts | 64° |
| 2026-05-08 01:15 | -33.83255 | 151.23215 | 8996 ft | 311 kts | 62° |
| 2026-05-08 01:15 | -33.82174 | 151.25493 | 9837 ft | 317 kts | 61° |
| 2026-05-08 01:15 | -33.81035 | 151.27838 | 10360 ft | 334 kts | 60° |
| 2026-05-08 01:15 | -33.79810 | 151.30324 | 10632 ft | 357 kts | 60° |
| 2026-05-08 01:16 | -33.78507 | 151.32943 | 11102 ft | 370 kts | 60° |
| 2026-05-08 01:16 | -33.77167 | 151.35623 | 11736 ft | 378 kts | 60° |
| 2026-05-08 01:16 | -33.75802 | 151.38359 | 12392 ft | 385 kts | 60° |
| 2026-05-08 01:16 | -33.74416 | 151.41143 | 13043 ft | 392 kts | 60° |
| 2026-05-08 01:17 | -33.73009 | 151.43977 | 13707 ft | 398 kts | 60° |
| 2026-05-08 01:17 | -33.71597 | 151.46822 | 14265 ft | 405 kts | 60° |
| 2026-05-08 01:17 | -33.70141 | 151.49747 | 14867 ft | 410 kts | 60° |
| 2026-05-08 01:17 | -33.68672 | 151.52697 | 15478 ft | 414 kts | 60° |
| 2026-05-08 01:18 | -33.67187 | 151.55680 | 16086 ft | 419 kts | 60° |
| 2026-05-08 01:18 | -33.65610 | 151.58645 | 16692 ft | 424 kts | 53° |
| 2026-05-08 01:18 | -33.63592 | 151.61256 | 17300 ft | 428 kts | 40° |
| 2026-05-08 01:18 | -33.61180 | 151.63361 | 17938 ft | 431 kts | 30° |
| 2026-05-08 01:19 | -33.58648 | 151.65331 | 18530 ft | 435 kts | 30° |
| 2026-05-08 01:19 | -33.56128 | 151.67298 | 19077 ft | 439 kts | 30° |
| 2026-05-08 01:19 | -33.53563 | 151.69308 | 19651 ft | 442 kts | 30° |
| 2026-05-08 01:19 | -33.50971 | 151.71288 | 20297 ft | 442 kts | 26° |
| 2026-05-08 01:20 | -33.48190 | 151.72872 | 20893 ft | 441 kts | 16° |
| 2026-05-08 01:20 | -33.45267 | 151.73939 | 21465 ft | 440 kts | 9° |
| 2026-05-08 01:20 | -33.42299 | 151.74890 | 22051 ft | 443 kts | 9° |
| 2026-05-08 01:20 | -33.39311 | 151.75844 | 22614 ft | 446 kts | 9° |
| 2026-05-08 01:21 | -33.36307 | 151.76805 | 23189 ft | 449 kts | 9° |
| 2026-05-08 01:21 | -33.33283 | 151.77777 | 23706 ft | 452 kts | 9° |
| 2026-05-08 01:21 | -33.30247 | 151.78756 | 24213 ft | 453 kts | 9° |
| 2026-05-08 01:21 | -33.27198 | 151.79740 | 24704 ft | 454 kts | 9° |
| 2026-05-08 01:22 | -33.24143 | 151.80728 | 25189 ft | 456 kts | 9° |
| 2026-05-08 01:22 | -33.21073 | 151.81721 | 25647 ft | 457 kts | 9° |
| 2026-05-08 01:22 | -33.18034 | 151.82704 | 26110 ft | 459 kts | 8° |
| 2026-05-08 01:22 | -33.14951 | 151.83699 | 26570 ft | 460 kts | 8° |
| 2026-05-08 01:23 | -33.11844 | 151.84698 | 26971 ft | 462 kts | 8° |
| 2026-05-08 01:23 | -33.08740 | 151.85695 | 27428 ft | 463 kts | 8° |
| 2026-05-08 01:23 | -33.05628 | 151.86695 | 27879 ft | 464 kts | 8° |
| 2026-05-08 01:23 | -33.02497 | 151.87704 | 28314 ft | 466 kts | 8° |
| 2026-05-08 01:24 | -32.99358 | 151.88712 | 28744 ft | 467 kts | 7° |
| 2026-05-08 01:24 | -32.96209 | 151.89723 | 29172 ft | 469 kts | 7° |
| 2026-05-08 01:24 | -32.93047 | 151.90734 | 29586 ft | 471 kts | 7° |
| 2026-05-08 01:24 | -32.89875 | 151.91747 | 29986 ft | 473 kts | 7° |
| 2026-05-08 01:25 | -32.86692 | 151.92761 | 30366 ft | 473 kts | 7° |
| 2026-05-08 01:25 | -32.83507 | 151.93778 | 30734 ft | 475 kts | 6° |
| 2026-05-08 01:25 | -32.80310 | 151.94797 | 31055 ft | 477 kts | 6° |
| 2026-05-08 01:25 | -32.77138 | 151.95808 | 31368 ft | 479 kts | 6° |
| 2026-05-08 01:26 | -32.73919 | 151.96832 | 31723 ft | 479 kts | 6° |
| 2026-05-08 01:26 | -32.70707 | 151.97856 | 32178 ft | 477 kts | 6° |
| 2026-05-08 01:26 | -32.67508 | 151.98881 | 32639 ft | 476 kts | 7° |
| 2026-05-08 01:26 | -32.64311 | 151.99908 | 33096 ft | 474 kts | 6° |
| 2026-05-08 01:27 | -32.61128 | 152.00924 | 33566 ft | 473 kts | 6° |
| 2026-05-08 01:27 | -32.57954 | 152.01936 | 34035 ft | 471 kts | 6° |
| 2026-05-08 01:27 | -32.54791 | 152.02941 | 34450 ft | 470 kts | 6° |
| 2026-05-08 01:27 | -32.51638 | 152.03936 | 34853 ft | 468 kts | 6° |
| 2026-05-08 01:28 | -32.48493 | 152.04925 | 35232 ft | 467 kts | 6° |
| 2026-05-08 01:28 | -32.45357 | 152.05913 | 35573 ft | 466 kts | 5° |
| 2026-05-08 01:28 | -32.42234 | 152.06899 | 35965 ft | 464 kts | 5° |
| 2026-05-08 01:28 | -32.39123 | 152.07886 | 36337 ft | 462 kts | 5° |
| 2026-05-08 01:29 | -32.36018 | 152.08871 | 36698 ft | 461 kts | 5° |
| 2026-05-08 01:29 | -32.32928 | 152.09848 | 37021 ft | 460 kts | 5° |
| 2026-05-08 01:29 | -32.29875 | 152.10812 | 37119 ft | 460 kts | 4° |
| 2026-05-08 01:30 | -32.23685 | 152.12760 | 37143 ft | 460 kts | 4° |
| 2026-05-08 01:30 | -32.17494 | 152.14707 | 37141 ft | 460 kts | 4° |
| 2026-05-08 01:31 | -32.11302 | 152.16658 | 37137 ft | 460 kts | 4° |
| 2026-05-08 01:31 | -32.05113 | 152.18600 | 37134 ft | 460 kts | 4° |
| 2026-05-08 01:32 | -31.98929 | 152.20534 | 37117 ft | 460 kts | 4° |
| 2026-05-08 01:32 | -31.92737 | 152.22472 | 37136 ft | 460 kts | 4° |
| 2026-05-08 01:33 | -31.86580 | 152.24401 | 37147 ft | 460 kts | 4° |
| 2026-05-08 01:33 | -31.80382 | 152.26330 | 37147 ft | 460 kts | 4° |
| 2026-05-08 01:34 | -31.74198 | 152.28263 | 37115 ft | 460 kts | 3° |
| 2026-05-08 01:34 | -31.68020 | 152.30190 | 37144 ft | 459 kts | 3° |
| 2026-05-08 01:35 | -31.61853 | 152.32109 | 37142 ft | 458 kts | 3° |
| 2026-05-08 01:35 | -31.55688 | 152.34021 | 37144 ft | 458 kts | 3° |
| 2026-05-08 01:36 | -31.49539 | 152.35927 | 37122 ft | 457 kts | 3° |
| 2026-05-08 01:36 | -31.43387 | 152.37829 | 37133 ft | 457 kts | 3° |
| 2026-05-08 01:37 | -31.37281 | 152.39715 | 37131 ft | 457 kts | 3° |
| 2026-05-08 01:37 | -31.31135 | 152.41619 | 37101 ft | 457 kts | 3° |
| 2026-05-08 01:38 | -31.25007 | 152.43516 | 37142 ft | 455 kts | 2° |
| 2026-05-08 01:38 | -31.18889 | 152.45396 | 37137 ft | 454 kts | 3° |
| 2026-05-08 01:39 | -31.12775 | 152.47272 | 37140 ft | 454 kts | 3° |
| 2026-05-08 01:39 | -31.06661 | 152.49145 | 37114 ft | 453 kts | 2° |
| 2026-05-08 01:40 | -31.00618 | 152.51004 | 37143 ft | 452 kts | 2° |
| 2026-05-08 01:40 | -30.94538 | 152.52872 | 37156 ft | 451 kts | 2° |
| 2026-05-08 01:41 | -30.88476 | 152.54724 | 37148 ft | 450 kts | 2° |
| 2026-05-08 01:41 | -30.82423 | 152.56575 | 37127 ft | 449 kts | 1° |
| 2026-05-08 01:42 | -30.76383 | 152.58502 | 37135 ft | 451 kts | 4° |
| 2026-05-08 01:42 | -30.70377 | 152.60705 | 37141 ft | 454 kts | 5° |
| 2026-05-08 01:43 | -30.64363 | 152.62983 | 37142 ft | 454 kts | 5° |
| 2026-05-08 01:43 | -30.58405 | 152.65184 | 37102 ft | 450 kts | 4° |
| 2026-05-08 01:44 | -30.52423 | 152.67336 | 37139 ft | 451 kts | 4° |
| 2026-05-08 01:44 | -30.46439 | 152.69480 | 37144 ft | 449 kts | 4° |
| 2026-05-08 01:45 | -30.40460 | 152.71630 | 37143 ft | 449 kts | 4° |
| 2026-05-08 01:45 | -30.34492 | 152.73789 | 37137 ft | 449 kts | 4° |
| 2026-05-08 01:46 | -30.28566 | 152.75926 | 37137 ft | 448 kts | 4° |
| 2026-05-08 01:46 | -30.22605 | 152.78059 | 37143 ft | 448 kts | 4° |
| 2026-05-08 01:47 | -30.16643 | 152.80195 | 37142 ft | 448 kts | 4° |
| 2026-05-08 01:47 | -30.10677 | 152.82332 | 37123 ft | 448 kts | 3° |
| 2026-05-08 01:48 | -30.01762 | 152.85526 | 37149 ft | 447 kts | 3° |
| 2026-05-08 01:48 | -29.95821 | 152.87650 | 37151 ft | 447 kts | 3° |
| 2026-05-08 01:49 | -29.89917 | 152.89754 | 37120 ft | 446 kts | 3° |
| 2026-05-08 01:49 | -29.83990 | 152.91873 | 37142 ft | 446 kts | 3° |
| 2026-05-08 01:50 | -29.78064 | 152.93992 | 37153 ft | 446 kts | 3° |
| 2026-05-08 01:50 | -29.72142 | 152.96094 | 37157 ft | 445 kts | 3° |
| 2026-05-08 01:51 | -29.66219 | 152.98189 | 37117 ft | 445 kts | 2° |
| 2026-05-08 01:51 | -29.60304 | 153.00280 | 37140 ft | 445 kts | 2° |
| 2026-05-08 01:52 | -29.54385 | 153.02376 | 37151 ft | 445 kts | 2° |
| 2026-05-08 01:52 | -29.48508 | 153.04456 | 37158 ft | 445 kts | 2° |
| 2026-05-08 01:53 | -29.42591 | 153.06554 | 37142 ft | 445 kts | 2° |
| 2026-05-08 01:53 | -29.36645 | 153.08660 | 37151 ft | 444 kts | 2° |
| 2026-05-08 01:54 | -29.33697 | 153.09699 | 36971 ft | 443 kts | 2° |
| 2026-05-08 01:54 | -29.30749 | 153.10736 | 36715 ft | 443 kts | 2° |
| 2026-05-08 01:54 | -29.27843 | 153.11754 | 36468 ft | 443 kts | 2° |
| 2026-05-08 01:54 | -29.24886 | 153.12791 | 36219 ft | 444 kts | 2° |
| 2026-05-08 01:55 | -29.21933 | 153.13828 | 35988 ft | 445 kts | 2° |
| 2026-05-08 01:55 | -29.18964 | 153.14870 | 35700 ft | 445 kts | 2° |
| 2026-05-08 01:55 | -29.15994 | 153.15914 | 35460 ft | 446 kts | 2° |
| 2026-05-08 01:55 | -29.13022 | 153.16960 | 35223 ft | 447 kts | 2° |
| 2026-05-08 01:56 | -29.10086 | 153.17996 | 34994 ft | 448 kts | 3° |
| 2026-05-08 01:56 | -29.07101 | 153.19049 | 34761 ft | 449 kts | 3° |
| 2026-05-08 01:56 | -29.04113 | 153.20096 | 34530 ft | 449 kts | 3° |
| 2026-05-08 01:56 | -29.01119 | 153.21141 | 34301 ft | 449 kts | 3° |
| 2026-05-08 01:57 | -28.98132 | 153.22185 | 34062 ft | 449 kts | 3° |
| 2026-05-08 01:57 | -28.95154 | 153.23229 | 33754 ft | 447 kts | 3° |
| 2026-05-08 01:57 | -28.92197 | 153.24270 | 33346 ft | 442 kts | 4° |
| 2026-05-08 01:57 | -28.89267 | 153.25301 | 32826 ft | 438 kts | 4° |
| 2026-05-08 01:58 | -28.86360 | 153.26321 | 32316 ft | 435 kts | 4° |
| 2026-05-08 01:58 | -28.83481 | 153.27329 | 31803 ft | 431 kts | 5° |
| 2026-05-08 01:58 | -28.80658 | 153.28317 | 31303 ft | 428 kts | 5° |
| 2026-05-08 01:58 | -28.77816 | 153.29307 | 30790 ft | 426 kts | 5° |
| 2026-05-08 01:59 | -28.74994 | 153.30286 | 30288 ft | 423 kts | 6° |
| 2026-05-08 01:59 | -28.72184 | 153.31260 | 29685 ft | 420 kts | 6° |
| 2026-05-08 01:59 | -28.69408 | 153.32230 | 29236 ft | 415 kts | 5° |
| 2026-05-08 01:59 | -28.66657 | 153.33192 | 28752 ft | 411 kts | 5° |
| 2026-05-08 02:00 | -28.63937 | 153.34138 | 28266 ft | 408 kts | 6° |
| 2026-05-08 02:00 | -28.61228 | 153.35081 | 27800 ft | 405 kts | 6° |
| 2026-05-08 02:00 | -28.58539 | 153.36017 | 27333 ft | 403 kts | 6° |
| 2026-05-08 02:00 | -28.55865 | 153.36944 | 26886 ft | 401 kts | 7° |
| 2026-05-08 02:01 | -28.53201 | 153.37864 | 26441 ft | 400 kts | 7° |
| 2026-05-08 02:01 | -28.51439 | 153.38471 | 26142 ft | 399 kts | 7° |
| 2026-05-08 02:01 | -28.49302 | 153.39210 | 25798 ft | 398 kts | 7° |
| 2026-05-08 02:01 | -28.46654 | 153.40127 | 25356 ft | 397 kts | 7° |
| 2026-05-08 02:02 | -28.44021 | 153.41040 | 24952 ft | 395 kts | 8° |
| 2026-05-08 02:02 | -28.41393 | 153.41951 | 24528 ft | 395 kts | 8° |
| 2026-05-08 02:02 | -28.38768 | 153.42859 | 24089 ft | 394 kts | 9° |
| 2026-05-08 02:02 | -28.36147 | 153.43762 | 23642 ft | 394 kts | 9° |
| 2026-05-08 02:03 | -28.33531 | 153.44666 | 23144 ft | 392 kts | 9° |
| 2026-05-08 02:03 | -28.30931 | 153.45567 | 22688 ft | 389 kts | 10° |
| 2026-05-08 02:03 | -28.28343 | 153.46463 | 22220 ft | 387 kts | 10° |
| 2026-05-08 02:03 | -28.25771 | 153.47354 | 21753 ft | 384 kts | 10° |
| 2026-05-08 02:04 | -28.23221 | 153.48235 | 21284 ft | 382 kts | 11° |
| 2026-05-08 02:04 | -28.20687 | 153.49107 | 20795 ft | 380 kts | 11° |
| 2026-05-08 02:04 | -28.18151 | 153.49835 | 20325 ft | 372 kts | 2° |
| 2026-05-08 02:04 | -28.15641 | 153.50005 | 19860 ft | 362 kts | 351° |
| 2026-05-08 02:05 | -28.13173 | 153.49643 | 19404 ft | 355 kts | 344° |
| 2026-05-08 02:05 | -28.10753 | 153.49137 | 18936 ft | 353 kts | 344° |
| 2026-05-08 02:05 | -28.08344 | 153.48636 | 18478 ft | 352 kts | 345° |
| 2026-05-08 02:05 | -28.05936 | 153.48137 | 17925 ft | 351 kts | 345° |
| 2026-05-08 02:06 | -28.03522 | 153.47635 | 17335 ft | 352 kts | 345° |
| 2026-05-08 02:06 | -28.01122 | 153.47137 | 16883 ft | 349 kts | 345° |
| 2026-05-08 02:06 | -27.98739 | 153.46645 | 16431 ft | 346 kts | 345° |
| 2026-05-08 02:06 | -27.96379 | 153.46157 | 15980 ft | 344 kts | 345° |
| 2026-05-08 02:07 | -27.94030 | 153.45672 | 15539 ft | 342 kts | 345° |
| 2026-05-08 02:07 | -27.91694 | 153.45191 | 15096 ft | 340 kts | 345° |
| 2026-05-08 02:07 | -27.89371 | 153.44711 | 14655 ft | 338 kts | 346° |
| 2026-05-08 02:07 | -27.87059 | 153.44235 | 14217 ft | 337 kts | 346° |
| 2026-05-08 02:08 | -27.84759 | 153.43763 | 13757 ft | 336 kts | 346° |
| 2026-05-08 02:08 | -27.82469 | 153.43291 | 13303 ft | 334 kts | 346° |
| 2026-05-08 02:08 | -27.80189 | 153.42821 | 12867 ft | 332 kts | 346° |
| 2026-05-08 02:08 | -27.77924 | 153.42357 | 12432 ft | 330 kts | 346° |
| 2026-05-08 02:09 | -27.75669 | 153.41894 | 12000 ft | 329 kts | 346° |
| 2026-05-08 02:09 | -27.73424 | 153.41430 | 11574 ft | 327 kts | 346° |
| 2026-05-08 02:09 | -27.71185 | 153.40967 | 11147 ft | 327 kts | 346° |
| 2026-05-08 02:09 | -27.68954 | 153.40508 | 10725 ft | 326 kts | 346° |
| 2026-05-08 02:10 | -27.66720 | 153.40048 | 10299 ft | 326 kts | 347° |
| 2026-05-08 02:10 | -27.64505 | 153.39590 | 10099 ft | 318 kts | 346° |
| 2026-05-08 02:10 | -27.62368 | 153.39144 | 9948 ft | 308 kts | 346° |
| 2026-05-08 02:10 | -27.60301 | 153.38690 | 9635 ft | 305 kts | 346° |
| 2026-05-08 02:11 | -27.58224 | 153.38224 | 9236 ft | 304 kts | 346° |
| 2026-05-08 02:11 | -27.56150 | 153.37757 | 8889 ft | 302 kts | 346° |
| 2026-05-08 02:11 | -27.54087 | 153.37293 | 8495 ft | 302 kts | 346° |
| 2026-05-08 02:11 | -27.52034 | 153.36833 | 8116 ft | 302 kts | 346° |
| 2026-05-08 02:12 | -27.49984 | 153.36373 | 7834 ft | 298 kts | 346° |
| 2026-05-08 02:12 | -27.47953 | 153.35918 | 7477 ft | 297 kts | 346° |
| 2026-05-08 02:12 | -27.45920 | 153.35465 | 7126 ft | 297 kts | 346° |
| 2026-05-08 02:12 | -27.43912 | 153.35019 | 6619 ft | 293 kts | 346° |
| 2026-05-08 02:13 | -27.41913 | 153.34577 | 5974 ft | 291 kts | 346° |
| 2026-05-08 02:13 | -27.39948 | 153.34142 | 5561 ft | 280 kts | 346° |
| 2026-05-08 02:13 | -27.38106 | 153.33735 | 5430 ft | 260 kts | 346° |
| 2026-05-08 02:13 | -27.36423 | 153.33365 | 5325 ft | 240 kts | 346° |
| 2026-05-08 02:14 | -27.34839 | 153.33024 | 5152 ft | 227 kts | 347° |
| 2026-05-08 02:14 | -27.33313 | 153.32726 | 4895 ft | 217 kts | 347° |
| 2026-05-08 02:14 | -27.31858 | 153.32452 | 4643 ft | 207 kts | 348° |
| 2026-05-08 02:14 | -27.30450 | 153.32189 | 4408 ft | 203 kts | 348° |
| 2026-05-08 02:15 | -27.29084 | 153.31847 | 4196 ft | 198 kts | 334° |
| 2026-05-08 02:15 | -27.27984 | 153.31048 | 4006 ft | 181 kts | 313° |
| 2026-05-08 02:15 | -27.27287 | 153.29967 | 3751 ft | 164 kts | 292° |
| 2026-05-08 02:15 | -27.26975 | 153.28797 | 3518 ft | 150 kts | 277° |
| 2026-05-08 02:16 | -27.26784 | 153.27573 | 3322 ft | 168 kts | 279° |
| 2026-05-08 02:16 | -27.26632 | 153.26256 | 3085 ft | 171 kts | 268° |
| 2026-05-08 02:16 | -27.26872 | 153.24966 | 2855 ft | 164 kts | 246° |
| 2026-05-08 02:16 | -27.27422 | 153.23910 | 2642 ft | 150 kts | 237° |
| 2026-05-08 02:17 | -27.27969 | 153.22948 | 2454 ft | 142 kts | 237° |
| 2026-05-08 02:17 | -27.28495 | 153.22017 | 2276 ft | 140 kts | 236° |
| 2026-05-08 02:17 | -27.29008 | 153.21109 | 2101 ft | 140 kts | 236° |
| 2026-05-08 02:17 | -27.29529 | 153.20187 | 1914 ft | 139 kts | 236° |
| 2026-05-08 02:18 | -27.30046 | 153.19272 | 1739 ft | 139 kts | 236° |
| 2026-05-08 02:18 | -27.30564 | 153.18349 | 1550 ft | 139 kts | 237° |
| 2026-05-08 02:18 | -27.31121 | 153.17477 | 1384 ft | 135 kts | 226° |
| 2026-05-08 02:18 | -27.31808 | 153.16758 | 1210 ft | 135 kts | 216° |
| 2026-05-08 02:19 | -27.32611 | 153.16200 | 1050 ft | 136 kts | 207° |
| 2026-05-08 02:19 | -27.33449 | 153.15725 | 861 ft | 138 kts | 207° |
| 2026-05-08 02:19 | -27.34303 | 153.15237 | 687 ft | 137 kts | 209° |
| 2026-05-08 02:19 | -27.35149 | 153.14753 | 526 ft | 135 kts | 208° |
| 2026-05-08 02:20 | -27.35997 | 153.14272 | 372 ft | 137 kts | 209° |
| 2026-05-08 02:20 | -27.36848 | 153.13781 | 207 ft | 137 kts | 208° |
| 2026-05-08 02:20 | -27.37693 | 153.13300 | 28 ft | 134 kts | 209° |
| 2026-05-08 02:20 | -27.38388 | 153.12899 | 24 ft | 88 kts | 207° |
| 2026-05-08 02:21 | -27.38786 | 153.12680 | 21 ft | 42 kts | 206° |
| 2026-05-08 02:21 | -27.38930 | 153.12558 | 21 ft | 15 kts | 226° |
| 2026-05-08 02:21 | -27.39005 | 153.12458 | 22 ft | 18 kts | 234° |
| 2026-05-08 02:21 | -27.39073 | 153.12344 | 24 ft | 15 kts | 237° |
| 2026-05-08 02:22 | -27.39122 | 153.12259 | 21 ft | 6 kts | 237° |
| 2026-05-08 02:22 | -27.39135 | 153.12234 | 21 ft | 4 kts | 241° |
| 2026-05-08 02:22 | -27.39144 | 153.12195 | 21 ft | 7 kts | 280° |
| 2026-05-08 02:22 | -27.39116 | 153.12159 | 21 ft | 6 kts | 324° |
| 2026-05-08 02:23 | -27.39074 | 153.12130 | 23 ft | 7 kts | 328° |
| 2026-05-08 02:23 | -27.39029 | 153.12092 | 22 ft | 9 kts | 309° |
| 2026-05-08 02:23 | -27.39006 | 153.12028 | 22 ft | 7 kts | 295° |
| 2026-05-08 02:23 | -27.38957 | 153.11998 | 21 ft | 10 kts | 11° |
| 2026-05-08 02:24 | -27.38904 | 153.12055 | 23 ft | 10 kts | 50° |
| 2026-05-08 02:24 | -27.38863 | 153.12106 | 24 ft | 10 kts | 38° |
| 2026-05-08 02:24 | -27.38805 | 153.12101 | 23 ft | 8 kts | 320° |
| 2026-05-08 02:24 | -27.38786 | 153.12082 | 22 ft | 3 kts | 318° |
| 2026-05-08 02:25 | -27.38763 | 153.12054 | 21 ft | 6 kts | 299° |
| 2026-05-08 02:25 | -27.38755 | 153.12014 | 21 ft | 4 kts | 327° |
| 2026-05-08 02:25 | -27.38735 | 153.12003 | 21 ft | 3 kts | 335° |
| 2026-05-08 02:25 | -27.38721 | 153.11996 | 23 ft | 2 kts | 335° |
| 2026-05-08 02:26 | -27.38713 | 153.11992 | 23 ft | 0 kts | 336° |
| 2026-05-08 02:35 | -27.38714 | 153.11992 | 178 ft | 0 kts | 335° |
| 2026-05-08 02:35 | -27.38712 | 153.11991 | 172 ft | 0 kts | 335° |